createdAt,value
2018-04-23T00:00:49.852Z,16.63
2018-04-23T00:03:16.589Z,13.00
2018-04-23T00:05:43.303Z,12.33
2018-04-23T00:08:10.030Z,11.50
2018-04-23T00:10:36.757Z,13.47
2018-04-23T00:13:03.478Z,17.53
2018-04-23T00:15:30.213Z,12.77
2018-04-23T00:17:56.960Z,14.87
2018-04-23T00:20:23.678Z,12.90
2018-04-23T00:22:50.477Z,12.90
2018-04-23T00:25:17.233Z,12.90
2018-04-23T00:27:43.954Z,12.80
2018-04-23T00:30:10.704Z,16.97
2018-04-23T00:32:37.445Z,14.27
2018-04-23T00:35:04.181Z,13.30
2018-04-23T00:37:30.916Z,12.90
2018-04-23T00:39:57.633Z,12.37
2018-04-23T00:42:24.371Z,18.57
2018-04-23T00:44:51.087Z,13.53
2018-04-23T00:47:17.811Z,13.97
2018-04-23T00:49:44.549Z,13.17
2018-04-23T00:52:11.257Z,12.10
2018-04-23T00:54:37.971Z,16.33
2018-04-23T00:57:04.717Z,12.93
2018-04-23T00:59:31.526Z,13.43
2018-04-23T01:01:58.248Z,13.10
2018-04-23T01:04:24.993Z,14.23
2018-04-23T01:06:51.708Z,12.30
2018-04-23T01:09:18.492Z,12.97
2018-04-23T01:11:45.227Z,12.47
2018-04-23T01:14:11.945Z,14.03
2018-04-23T01:16:38.711Z,16.23
2018-04-23T01:19:05.437Z,16.30
2018-04-23T01:21:32.149Z,13.67
2018-04-23T01:23:58.883Z,13.87
2018-04-23T01:26:25.615Z,13.07
2018-04-23T01:28:52.320Z,13.20
2018-04-23T01:31:19.061Z,13.43
2018-04-23T01:33:45.784Z,13.13
2018-04-23T01:36:12.492Z,15.70
2018-04-23T01:38:39.239Z,14.13
2018-04-23T01:41:05.967Z,15.83
2018-04-23T01:43:32.673Z,15.07
2018-04-23T01:45:59.426Z,15.57
2018-04-23T01:48:26.138Z,14.57
2018-04-23T01:50:52.842Z,13.90
2018-04-23T01:53:19.561Z,13.53
2018-04-23T01:55:46.260Z,13.77
2018-04-23T01:58:12.999Z,13.73
2018-04-23T02:00:39.737Z,14.00
2018-04-23T02:03:06.451Z,13.97
2018-04-23T02:05:33.196Z,12.73
2018-04-23T02:07:59.910Z,14.57
2018-04-23T02:10:26.618Z,18.10
2018-04-23T02:12:53.372Z,13.60
2018-04-23T02:15:20.078Z,14.23
2018-04-23T02:17:46.781Z,18.03
2018-04-23T02:20:13.503Z,14.70
2018-04-23T02:22:40.211Z,14.30
2018-04-23T02:25:06.929Z,17.40
2018-04-23T02:27:33.669Z,13.73
2018-04-23T02:30:00.372Z,14.00
2018-04-23T02:32:27.086Z,12.77
2018-04-23T02:34:53.830Z,15.03
2018-04-23T02:37:20.549Z,14.60
2018-04-23T02:39:47.284Z,15.37
2018-04-23T02:42:14.028Z,18.97
2018-04-23T02:44:40.760Z,14.30
2018-04-23T02:47:07.482Z,15.47
2018-04-23T02:49:34.282Z,15.37
2018-04-23T02:52:00.988Z,14.63
2018-04-23T02:54:27.741Z,14.37
2018-04-23T02:56:54.472Z,16.10
2018-04-23T02:59:21.167Z,16.10
2018-04-23T03:01:47.896Z,15.20
2018-04-23T03:04:14.723Z,17.47
2018-04-23T03:06:41.469Z,15.57
2018-04-23T03:09:08.181Z,16.43
2018-04-23T03:11:34.902Z,14.63
2018-04-23T03:14:01.626Z,16.80
2018-04-23T03:16:28.384Z,15.87
2018-04-23T03:18:55.176Z,15.17
2018-04-23T03:21:21.905Z,15.53
2018-04-23T03:23:48.631Z,15.70
2018-04-23T03:26:15.370Z,15.13
2018-04-23T03:28:42.114Z,17.27
2018-04-23T03:31:08.855Z,20.17
2018-04-23T03:33:35.578Z,16.27
2018-04-23T03:36:02.330Z,16.60
2018-04-23T03:38:29.065Z,15.70
2018-04-23T03:40:55.812Z,15.83
2018-04-23T03:43:22.530Z,14.67
2018-04-23T03:45:49.281Z,16.67
2018-04-23T03:48:16.017Z,15.20
2018-04-23T03:50:42.733Z,16.73
2018-04-23T03:53:09.489Z,17.10
2018-04-23T03:55:36.223Z,16.53
2018-04-23T03:58:02.948Z,16.23
2018-04-23T04:00:29.680Z,15.90
2018-04-23T04:02:56.392Z,16.33
2018-04-23T04:05:23.143Z,15.50
2018-04-23T04:07:49.858Z,18.93
2018-04-23T04:10:16.581Z,17.10
2018-04-23T04:12:49.104Z,20.83
2018-04-23T04:15:21.719Z,17.57
2018-04-23T04:18:03.372Z,15.53
2018-04-23T04:20:30.092Z,15.33
2018-04-23T04:22:56.805Z,15.73
2018-04-23T04:25:23.550Z,18.50
2018-04-23T04:27:50.263Z,18.23
2018-04-23T04:30:16.992Z,17.30
2018-04-23T04:32:43.746Z,16.50
2018-04-23T04:35:10.460Z,17.43
2018-04-23T04:37:37.207Z,16.87
2018-04-23T04:40:03.971Z,17.27
2018-04-23T04:42:30.730Z,17.40
2018-04-23T04:44:57.454Z,18.53
2018-04-23T04:47:24.176Z,20.60
2018-04-23T04:49:50.913Z,18.63
2018-04-23T04:52:17.644Z,19.30
2018-04-23T04:54:44.369Z,19.13
2018-04-23T04:57:11.162Z,21.80
2018-04-23T04:59:37.880Z,19.53
2018-04-23T05:02:04.644Z,20.40
2018-04-23T05:04:31.393Z,23.90
2018-04-23T05:06:58.104Z,20.73
2018-04-23T05:09:24.842Z,24.87
2018-04-23T05:11:51.659Z,19.70
2018-04-23T05:14:18.361Z,22.23
2018-04-23T05:16:45.105Z,19.70
2018-04-23T05:19:11.869Z,20.07
2018-04-23T05:21:38.646Z,19.40
2018-04-23T05:24:05.383Z,28.60
2018-04-23T05:26:32.117Z,20.07
2018-04-23T05:28:58.826Z,23.00
2018-04-23T05:31:25.561Z,26.83
2018-04-23T05:33:52.285Z,22.17
2018-04-23T05:36:19.005Z,28.53
2018-04-23T05:38:45.738Z,22.83
2018-04-23T05:41:12.484Z,23.43
2018-04-23T05:43:39.216Z,23.47
2018-04-23T05:46:05.961Z,25.47
2018-04-23T05:48:32.675Z,20.97
2018-04-23T05:50:59.411Z,21.30
2018-04-23T05:53:26.143Z,25.00
2018-04-23T05:55:52.886Z,21.73
2018-04-23T05:58:19.627Z,25.40
2018-04-23T06:00:46.380Z,25.23
2018-04-23T06:03:13.098Z,24.40
2018-04-23T06:05:39.824Z,21.47
2018-04-23T06:08:06.560Z,35.33
2018-04-23T06:10:33.272Z,23.60
2018-04-23T06:12:59.993Z,26.83
2018-04-23T06:15:26.743Z,24.50
2018-04-23T06:17:53.441Z,22.90
2018-04-23T06:20:20.194Z,32.73
2018-04-23T06:22:46.918Z,25.13
2018-04-23T06:25:13.637Z,32.33
2018-04-23T06:27:40.365Z,23.10
2018-04-23T06:30:07.093Z,27.17
2018-04-23T06:32:34.327Z,23.03
2018-04-23T06:35:06.898Z,20.50
2018-04-23T06:37:34.151Z,24.83
2018-04-23T06:40:00.873Z,25.10
2018-04-23T06:42:27.597Z,27.43
2018-04-23T06:44:54.297Z,27.17
2018-04-23T06:47:21.027Z,26.97
2018-04-23T06:49:47.757Z,24.83
2018-04-23T06:52:14.472Z,19.30
2018-04-23T06:54:41.198Z,30.03
2018-04-23T06:57:07.920Z,19.97
2018-04-23T06:59:34.669Z,27.53
2018-04-23T07:02:01.384Z,20.17
2018-04-23T07:04:28.097Z,21.60
2018-04-23T07:06:54.842Z,19.37
2018-04-23T07:09:21.545Z,22.00
2018-04-23T07:11:48.324Z,18.67
2018-04-23T07:14:15.041Z,20.43
2018-04-23T07:16:41.743Z,18.20
2018-04-23T07:19:08.478Z,17.70
2018-04-23T07:21:35.200Z,16.97
2018-04-23T07:24:01.982Z,17.53
2018-04-23T07:26:28.661Z,23.77
2018-04-23T07:28:55.371Z,16.03
2018-04-23T07:31:22.135Z,18.80
2018-04-23T07:33:48.829Z,14.40
2018-04-23T07:36:16.145Z,16.20
2018-04-23T07:38:42.893Z,12.77
2018-04-23T07:41:09.603Z,11.40
2018-04-23T07:43:36.318Z,15.80
2018-04-23T07:46:03.042Z,11.83
2018-04-23T07:48:29.748Z,17.80
2018-04-23T07:50:56.455Z,23.57
2018-04-23T07:53:23.180Z,20.03
2018-04-23T07:55:49.889Z,35.07
2018-04-23T07:58:16.615Z,21.30
2018-04-23T08:00:43.349Z,25.63
2018-04-23T08:03:10.056Z,23.77
2018-04-23T08:05:36.801Z,26.40
2018-04-23T08:08:03.550Z,26.30
2018-04-23T08:10:30.248Z,18.90
2018-04-23T08:12:56.982Z,21.53
2018-04-23T08:15:23.719Z,15.50
2018-04-23T08:17:50.448Z,17.30
2018-04-23T08:20:17.194Z,14.03
2018-04-23T08:22:43.937Z,17.00
2018-04-23T08:25:10.645Z,19.80
2018-04-23T08:27:37.372Z,26.37
2018-04-23T08:30:04.165Z,22.63
2018-04-23T08:32:30.896Z,17.27
2018-04-23T08:34:57.649Z,16.97
2018-04-23T08:37:24.361Z,20.43
2018-04-23T08:39:51.064Z,14.73
2018-04-23T08:42:17.834Z,19.57
2018-04-23T08:44:44.548Z,21.60
2018-04-23T08:47:11.290Z,15.70
2018-04-23T08:49:38.026Z,15.67
2018-04-23T08:52:04.733Z,11.20
2018-04-23T08:54:31.441Z,29.77
2018-04-23T08:56:58.192Z,11.10
2018-04-23T08:59:24.891Z,19.43
2018-04-23T09:01:51.592Z,11.80
2018-04-23T09:04:18.349Z,13.67
2018-04-23T09:06:45.072Z,9.97
2018-04-23T09:09:11.793Z,11.57
2018-04-23T09:11:38.519Z,9.63
2018-04-23T09:14:05.227Z,11.63
2018-04-23T09:16:31.930Z,13.73
2018-04-23T09:18:58.641Z,12.27
2018-04-23T09:21:25.353Z,15.70
2018-04-23T09:23:52.052Z,11.10
2018-04-23T09:26:18.777Z,13.57
2018-04-23T09:28:45.473Z,16.13
2018-04-23T09:31:12.171Z,10.27
2018-04-23T09:33:38.891Z,14.10
2018-04-23T09:36:05.625Z,8.07
2018-04-23T09:38:32.379Z,8.33
2018-04-23T09:40:59.096Z,7.83
2018-04-23T09:43:25.821Z,12.40
2018-04-23T09:45:52.554Z,8.87
2018-04-23T09:48:19.277Z,6.70
2018-04-23T09:50:45.993Z,8.60
2018-04-23T09:53:12.729Z,7.70
2018-04-23T09:55:39.446Z,7.47
2018-04-23T09:58:06.305Z,7.60
2018-04-23T10:00:33.712Z,7.20
2018-04-23T10:03:06.308Z,9.20
2018-04-23T10:05:33.031Z,8.43
2018-04-23T10:07:59.738Z,8.57
2018-04-23T10:10:26.477Z,8.37
2018-04-23T10:12:53.183Z,8.70
2018-04-23T10:15:19.910Z,9.37
2018-04-23T10:17:46.685Z,9.60
2018-04-23T10:20:13.391Z,7.30
2018-04-23T10:22:40.093Z,7.07
2018-04-23T10:25:06.813Z,6.03
2018-04-23T10:27:33.500Z,7.27
2018-04-23T10:30:00.195Z,6.33
2018-04-23T10:32:26.956Z,9.77
2018-04-23T10:34:53.671Z,5.77
2018-04-23T10:37:20.405Z,8.13
2018-04-23T10:39:47.132Z,6.53
2018-04-23T10:42:13.837Z,6.23
2018-04-23T10:44:40.553Z,11.60
2018-04-23T10:47:07.298Z,8.50
2018-04-23T10:49:34.000Z,6.97
2018-04-23T10:52:00.685Z,7.50
2018-04-23T10:54:27.423Z,7.03
2018-04-23T10:56:54.123Z,7.13
2018-04-23T10:59:20.836Z,12.03
2018-04-23T11:01:47.612Z,6.43
2018-04-23T11:04:14.283Z,5.57
2018-04-23T11:06:40.984Z,5.77
2018-04-23T11:09:07.737Z,5.27
2018-04-23T11:11:34.434Z,4.60
2018-04-23T11:14:01.150Z,4.63
2018-04-23T11:16:27.881Z,5.03
2018-04-23T11:18:54.600Z,6.00
2018-04-23T11:21:21.310Z,6.73
2018-04-23T11:23:48.036Z,7.10
2018-04-23T11:26:14.736Z,6.80
2018-04-23T11:28:41.443Z,8.37
2018-04-23T11:31:08.172Z,7.27
2018-04-23T11:33:34.899Z,9.23
2018-04-23T11:36:01.602Z,8.30
2018-04-23T11:38:28.306Z,9.43
2018-04-23T11:40:55.040Z,8.60
2018-04-23T11:43:21.744Z,6.93
2018-04-23T11:45:48.447Z,6.97
2018-04-23T11:48:15.166Z,8.57
2018-04-23T11:50:41.867Z,7.00
2018-04-23T11:53:08.623Z,7.40
2018-04-23T11:55:35.393Z,14.90
2018-04-23T11:58:02.109Z,8.30
2018-04-23T12:00:28.830Z,10.33
2018-04-23T12:02:55.596Z,8.17
2018-04-23T12:05:22.308Z,7.87
2018-04-23T12:07:49.064Z,10.23
2018-04-23T12:10:15.812Z,7.50
2018-04-23T12:12:42.529Z,7.10
2018-04-23T12:15:09.244Z,9.93
2018-04-23T12:17:35.984Z,7.57
2018-04-23T12:20:02.703Z,6.83
2018-04-23T12:22:29.430Z,12.77
2018-04-23T12:24:56.137Z,15.13
2018-04-23T12:27:22.833Z,8.20
2018-04-23T12:29:49.582Z,8.40
2018-04-23T12:32:16.398Z,6.70
2018-04-23T12:34:43.113Z,5.03
2018-04-23T12:37:09.853Z,10.43
2018-04-23T12:39:36.558Z,5.20
2018-04-23T12:42:03.369Z,6.27
2018-04-23T12:44:31.025Z,5.50
2018-04-23T12:46:57.993Z,7.00
2018-04-23T12:49:24.963Z,6.50
2018-04-23T12:51:51.704Z,6.27
2018-04-23T12:54:18.420Z,7.17
2018-04-23T12:56:45.181Z,7.70
2018-04-23T12:59:11.930Z,7.37
2018-04-23T13:01:38.633Z,6.27
2018-04-23T13:04:05.354Z,6.70
2018-04-23T13:06:32.078Z,8.20
2018-04-23T13:08:58.769Z,8.00
2018-04-23T13:11:25.489Z,7.80
2018-04-23T13:13:52.228Z,10.73
2018-04-23T13:16:18.935Z,13.40
2018-04-23T13:18:45.662Z,6.47
2018-04-23T13:21:12.427Z,7.40
2018-04-23T13:23:39.144Z,6.30
2018-04-23T13:26:05.886Z,6.60
2018-04-23T13:28:32.612Z,5.90
2018-04-23T13:30:59.326Z,6.93
2018-04-23T13:33:26.023Z,6.77
2018-04-23T13:35:52.957Z,7.40
2018-04-23T13:38:19.718Z,5.97
2018-04-23T13:40:46.470Z,8.37
2018-04-23T13:43:13.178Z,6.40
2018-04-23T13:45:39.895Z,6.53
2018-04-23T13:48:06.621Z,8.37
2018-04-23T13:50:33.337Z,6.10
2018-04-23T13:53:00.078Z,9.20
2018-04-23T13:55:26.825Z,6.23
2018-04-23T13:57:53.517Z,8.47
2018-04-23T14:00:20.240Z,9.33
2018-04-23T14:02:46.963Z,8.13
2018-04-23T14:05:13.662Z,7.80
2018-04-23T14:07:40.408Z,5.77
2018-04-23T14:10:07.108Z,5.63
2018-04-23T14:12:33.852Z,7.10
2018-04-23T14:15:00.562Z,9.07
2018-04-23T14:17:27.257Z,7.53
2018-04-23T14:19:53.994Z,6.60
2018-04-23T14:22:20.700Z,5.93
2018-04-23T14:24:47.405Z,7.47
2018-04-23T14:27:14.126Z,12.83
2018-04-23T14:29:40.831Z,5.63
2018-04-23T14:32:07.525Z,5.93
2018-04-23T14:34:34.362Z,8.17
2018-04-23T14:37:01.075Z,7.33
2018-04-23T14:39:27.885Z,8.90
2018-04-23T14:41:54.626Z,10.93
2018-04-23T14:44:21.336Z,19.13
2018-04-23T14:46:48.039Z,16.10
2018-04-23T14:49:14.791Z,18.13
2018-04-23T14:51:41.646Z,11.57
2018-04-23T14:54:08.352Z,10.13
2018-04-23T14:56:35.065Z,7.00
2018-04-23T14:59:02.575Z,5.90
2018-04-23T15:01:29.853Z,7.97
2018-04-23T15:03:56.672Z,8.53
2018-04-23T15:06:23.394Z,6.80
2018-04-23T15:08:50.109Z,8.43
2018-04-23T15:11:16.860Z,9.63
2018-04-23T15:13:43.561Z,6.43
2018-04-23T15:16:10.271Z,7.70
2018-04-23T15:18:37.026Z,5.90
2018-04-23T15:21:03.736Z,7.10
2018-04-23T15:23:30.451Z,7.37
2018-04-23T15:25:57.173Z,7.10
2018-04-23T15:28:23.896Z,7.50
2018-04-23T15:30:50.584Z,7.73
2018-04-23T15:33:17.305Z,8.30
2018-04-23T15:35:44.016Z,7.10
2018-04-23T15:38:10.717Z,8.83
2018-04-23T15:40:37.457Z,6.53
2018-04-23T15:43:04.156Z,8.47
2018-04-23T15:45:30.881Z,6.83
2018-04-23T15:47:57.602Z,5.87
2018-04-23T15:50:24.317Z,7.40
2018-04-23T15:52:51.037Z,5.30
2018-04-23T15:55:17.765Z,8.03
2018-04-23T15:57:44.473Z,6.90
2018-04-23T16:00:11.734Z,6.33
2018-04-23T16:02:38.427Z,6.30
2018-04-23T16:05:05.143Z,7.70
2018-04-23T16:07:31.882Z,8.50
2018-04-23T16:09:58.586Z,6.77
2018-04-23T16:12:25.292Z,7.27
2018-04-23T16:14:52.009Z,8.00
2018-04-23T16:17:18.757Z,13.00
2018-04-23T16:19:46.308Z,9.13
2018-04-23T16:22:13.148Z,8.70
2018-04-23T16:24:39.917Z,14.40
2018-04-23T16:27:06.653Z,10.57
2018-04-23T16:29:33.371Z,13.43
2018-04-23T16:32:00.131Z,9.17
2018-04-23T16:34:26.837Z,10.60
2018-04-23T16:36:53.603Z,11.60
2018-04-23T16:39:20.412Z,8.03
2018-04-23T16:41:47.121Z,10.33
2018-04-23T16:44:13.854Z,12.40
2018-04-23T16:46:40.579Z,8.77
2018-04-23T16:49:07.292Z,9.00
2018-04-23T16:51:34.034Z,8.00
2018-04-23T16:54:00.766Z,11.30
2018-04-23T16:56:27.494Z,9.10
2018-04-23T16:58:54.223Z,9.33
2018-04-23T17:01:20.943Z,8.97
2018-04-23T17:03:47.704Z,10.47
2018-04-23T17:06:14.446Z,12.53
2018-04-23T17:08:41.159Z,8.00
2018-04-23T17:11:07.884Z,8.53
2018-04-23T17:13:34.607Z,10.23
2018-04-23T17:16:01.315Z,9.03
2018-04-23T17:18:28.049Z,7.83
2018-04-23T17:20:54.794Z,8.60
2018-04-23T17:23:21.628Z,8.50
2018-04-23T17:25:48.410Z,8.93
2018-04-23T17:28:15.152Z,8.80
2018-04-23T17:30:41.883Z,8.47
2018-04-23T17:33:08.626Z,9.03
2018-04-23T17:35:35.353Z,9.30
2018-04-23T17:38:02.067Z,8.23
2018-04-23T17:40:28.789Z,7.70
2018-04-23T17:42:55.659Z,8.30
2018-04-23T17:48:29.611Z,9.57
2018-04-23T17:50:56.370Z,9.60
2018-04-23T17:53:23.080Z,11.60
2018-04-23T17:55:49.793Z,10.30
2018-04-23T17:58:16.526Z,9.43
2018-04-23T18:00:43.260Z,9.40
2018-04-23T18:03:09.957Z,8.77
2018-04-23T18:05:36.711Z,10.23
2018-04-23T18:08:03.439Z,9.43
2018-04-23T18:10:30.168Z,10.23
2018-04-23T18:12:56.904Z,9.43
2018-04-23T18:15:23.625Z,8.27
2018-04-23T18:17:50.460Z,9.80
2018-04-23T18:20:17.197Z,11.13
2018-04-23T18:22:44.076Z,10.27
2018-04-23T18:25:10.876Z,9.83
2018-04-23T18:27:37.594Z,8.97
2018-04-23T18:30:04.342Z,10.80
2018-04-23T18:32:31.089Z,9.30
2018-04-23T18:34:57.817Z,11.20
2018-04-23T18:37:24.536Z,9.30
2018-04-23T18:39:51.272Z,8.30
2018-04-23T18:42:17.984Z,8.53
2018-04-23T18:44:44.736Z,13.47
2018-04-23T18:47:11.479Z,7.83
2018-04-23T18:49:38.191Z,8.03
2018-04-23T18:52:04.952Z,9.10
2018-04-23T18:54:31.698Z,12.13
2018-04-23T18:56:58.422Z,8.60
2018-04-23T18:59:25.167Z,7.57
2018-04-23T19:01:51.889Z,9.33
2018-04-23T19:04:18.637Z,8.50
2018-04-23T19:06:45.393Z,10.30
2018-04-23T19:09:12.151Z,6.10
2018-04-23T19:11:38.859Z,5.00
2018-04-23T19:14:05.610Z,4.30
2018-04-23T19:16:32.376Z,6.27
2018-04-23T19:18:59.120Z,4.07
2018-04-23T19:21:25.852Z,3.50
2018-04-23T19:23:52.605Z,4.10
2018-04-23T19:26:19.359Z,7.50
2018-04-23T19:28:46.068Z,3.90
2018-04-23T19:31:12.840Z,3.30
2018-04-23T19:33:39.587Z,3.40
2018-04-23T19:36:06.302Z,3.27
2018-04-23T19:38:33.085Z,3.20
2018-04-23T19:40:59.819Z,4.60
2018-04-23T19:43:26.577Z,4.47
2018-04-23T19:45:53.367Z,3.33
2018-04-23T19:48:20.066Z,3.50
2018-04-23T19:50:46.810Z,5.07
2018-04-23T19:53:13.554Z,3.70
2018-04-23T19:55:40.265Z,4.20
2018-04-23T19:58:07.064Z,4.00
2018-04-23T20:00:33.877Z,5.40
2018-04-23T20:03:00.554Z,3.80
2018-04-23T20:05:27.339Z,3.93
2018-04-23T20:07:54.094Z,4.23
2018-04-23T20:10:20.813Z,7.80
2018-04-23T20:12:47.714Z,8.40
2018-04-23T20:15:14.456Z,8.77
2018-04-23T20:17:41.196Z,8.27
2018-04-23T20:20:07.929Z,4.10
2018-04-23T20:22:34.667Z,4.67
2018-04-23T20:25:01.410Z,4.30
2018-04-23T20:27:28.180Z,5.70
2018-04-23T20:29:54.944Z,5.10
2018-04-23T20:32:21.663Z,10.20
2018-04-23T20:34:48.409Z,7.30
2018-04-23T20:37:15.181Z,18.03
2018-04-23T20:39:41.898Z,13.20
2018-04-23T20:42:08.633Z,6.90
2018-04-23T20:44:35.372Z,8.30
2018-04-23T20:47:02.160Z,6.57
2018-04-23T20:49:28.841Z,5.40
2018-04-23T20:51:55.584Z,5.60
2018-04-23T20:54:22.307Z,6.40
2018-04-23T20:56:49.041Z,7.97
2018-04-23T20:59:15.801Z,7.23
2018-04-23T21:01:42.530Z,5.63
2018-04-23T21:04:09.270Z,8.03
2018-04-23T21:06:35.982Z,5.93
2018-04-23T21:09:02.848Z,5.87
2018-04-23T21:11:29.597Z,8.07
2018-04-23T21:13:56.316Z,5.00
2018-04-23T21:16:23.033Z,5.57
2018-04-23T21:18:49.768Z,5.20
2018-04-23T21:21:16.501Z,5.23
2018-04-23T21:23:43.245Z,5.33
2018-04-23T21:26:09.985Z,7.47
2018-04-23T21:28:36.705Z,5.97
2018-04-23T21:31:03.431Z,6.00
2018-04-23T21:33:30.185Z,5.47
2018-04-23T21:35:56.918Z,6.20
2018-04-23T21:38:23.651Z,6.37
2018-04-23T21:40:50.365Z,6.00
2018-04-23T21:43:17.114Z,5.40
2018-04-23T21:45:43.881Z,5.40
2018-04-23T21:48:10.603Z,5.20
2018-04-23T21:50:37.344Z,4.77
2018-04-23T21:53:04.053Z,5.73
2018-04-23T21:55:30.764Z,5.40
2018-04-23T21:57:57.535Z,7.20
2018-04-23T22:00:24.272Z,6.33
2018-04-23T22:02:51.029Z,5.13
2018-04-23T22:05:17.883Z,7.40
2018-04-23T22:07:44.608Z,5.93
2018-04-23T22:10:11.344Z,6.10
2018-04-23T22:12:38.094Z,6.20
2018-04-23T22:15:04.819Z,6.03
2018-04-23T22:17:31.538Z,5.97
2018-04-23T22:19:58.271Z,6.37
2018-04-23T22:22:24.972Z,6.10
2018-04-23T22:24:51.710Z,7.03
2018-04-23T22:27:18.429Z,5.63
2018-04-23T22:29:45.171Z,6.60
2018-04-23T22:32:11.934Z,6.70
2018-04-23T22:34:38.643Z,6.83
2018-04-23T22:37:05.386Z,6.70
2018-04-23T22:39:32.092Z,8.00
2018-04-23T22:41:58.827Z,8.17
2018-04-23T22:44:25.643Z,8.33
2018-04-23T22:46:52.355Z,9.20
2018-04-23T22:49:19.099Z,8.90
2018-04-23T22:51:45.832Z,10.00
2018-04-23T22:54:12.554Z,10.07
2018-04-23T22:56:39.269Z,9.93
2018-04-23T22:59:06.087Z,8.57
2018-04-23T23:01:32.781Z,13.03
2018-04-23T23:03:59.572Z,8.30
2018-04-23T23:06:26.275Z,7.67
2018-04-23T23:08:53.051Z,7.13
2018-04-23T23:11:19.733Z,6.10
2018-04-23T23:13:46.443Z,6.00
2018-04-23T23:16:13.144Z,5.43
2018-04-23T23:18:39.913Z,4.77
2018-04-23T23:21:06.587Z,3.47
2018-04-23T23:23:33.289Z,3.87
2018-04-23T23:25:59.983Z,4.60
2018-04-23T23:28:26.671Z,7.73
2018-04-23T23:30:54.318Z,5.70
2018-04-23T23:33:21.009Z,5.67
2018-04-23T23:35:47.695Z,4.33
2018-04-23T23:38:14.395Z,5.13
2018-04-23T23:40:41.085Z,3.30
2018-04-23T23:43:07.823Z,3.93
2018-04-23T23:45:34.502Z,4.10
2018-04-23T23:48:01.182Z,6.80
2018-04-23T23:50:27.912Z,5.57
2018-04-23T23:52:54.589Z,5.33
2018-04-23T23:55:21.273Z,3.83
2018-04-23T23:57:47.973Z,4.10
